sensor_id;sensor_type;location;lat;lon;timestamp;P1;durP1;ratioP1;P2;durP2;ratioP2
11263;SDS011;5689;48.798;9.070;2022-12-19T00:01:25;2.57;;;2.47;;
11263;SDS011;5689;48.798;9.070;2022-12-19T00:03:55;2.30;;;2.20;;
11263;SDS011;5689;48.798;9.070;2022-12-19T00:06:24;2.60;;;2.50;;
11263;SDS011;5689;48.798;9.070;2022-12-19T00:08:53;2.17;;;2.07;;
11263;SDS011;5689;48.798;9.070;2022-12-19T00:11:22;2.30;;;2.20;;
11263;SDS011;5689;48.798;9.070;2022-12-19T00:13:50;2.63;;;2.53;;
11263;SDS011;5689;48.798;9.070;2022-12-19T00:16:21;2.10;;;2.00;;
11263;SDS011;5689;48.798;9.070;2022-12-19T00:18:50;2.43;;;2.33;;
11263;SDS011;5689;48.798;9.070;2022-12-19T00:21:20;2.03;;;1.93;;
11263;SDS011;5689;48.798;9.070;2022-12-19T00:23:49;2.13;;;2.03;;
11263;SDS011;5689;48.798;9.070;2022-12-19T00:26:18;2.03;;;1.93;;
11263;SDS011;5689;48.798;9.070;2022-12-19T00:28:48;2.33;;;2.23;;
11263;SDS011;5689;48.798;9.070;2022-12-19T00:31:18;2.40;;;2.30;;
11263;SDS011;5689;48.798;9.070;2022-12-19T00:33:48;1.90;;;1.80;;
11263;SDS011;5689;48.798;9.070;2022-12-19T00:36:18;1.83;;;1.80;;
11263;SDS011;5689;48.798;9.070;2022-12-19T00:38:47;1.90;;;1.80;;
11263;SDS011;5689;48.798;9.070;2022-12-19T00:41:16;1.93;;;1.83;;
11263;SDS011;5689;48.798;9.070;2022-12-19T00:43:46;2.13;;;2.03;;
11263;SDS011;5689;48.798;9.070;2022-12-19T00:46:18;2.40;;;2.30;;
11263;SDS011;5689;48.798;9.070;2022-12-19T00:48:46;1.97;;;1.87;;
11263;SDS011;5689;48.798;9.070;2022-12-19T00:51:16;2.10;;;2.00;;
11263;SDS011;5689;48.798;9.070;2022-12-19T00:53:46;2.27;;;2.17;;
11263;SDS011;5689;48.798;9.070;2022-12-19T00:56:16;2.53;;;2.43;;
11263;SDS011;5689;48.798;9.070;2022-12-19T00:58:45;2.50;;;2.40;;
11263;SDS011;5689;48.798;9.070;2022-12-19T01:01:14;2.40;;;2.30;;
11263;SDS011;5689;48.798;9.070;2022-12-19T01:03:44;2.57;;;2.47;;
11263;SDS011;5689;48.798;9.070;2022-12-19T01:06:25;2.23;;;2.13;;
11263;SDS011;5689;48.798;9.070;2022-12-19T01:08:53;2.53;;;2.43;;
11263;SDS011;5689;48.798;9.070;2022-12-19T01:11:22;1.67;;;1.67;;
11263;SDS011;5689;48.798;9.070;2022-12-19T01:14:04;2.37;;;2.27;;
11263;SDS011;5689;48.798;9.070;2022-12-19T01:16:32;2.10;;;2.00;;
11263;SDS011;5689;48.798;9.070;2022-12-19T01:19:00;2.07;;;1.97;;
11263;SDS011;5689;48.798;9.070;2022-12-19T01:21:29;2.00;;;1.90;;
11263;SDS011;5689;48.798;9.070;2022-12-19T01:23:57;2.30;;;2.20;;
11263;SDS011;5689;48.798;9.070;2022-12-19T01:26:25;2.03;;;1.93;;
11263;SDS011;5689;48.798;9.070;2022-12-19T01:28:53;2.10;;;2.00;;
11263;SDS011;5689;48.798;9.070;2022-12-19T01:31:21;2.33;;;2.23;;
11263;SDS011;5689;48.798;9.070;2022-12-19T01:33:49;2.30;;;2.20;;
11263;SDS011;5689;48.798;9.070;2022-12-19T01:36:17;2.17;;;2.07;;
11263;SDS011;5689;48.798;9.070;2022-12-19T01:38:46;2.30;;;2.20;;
11263;SDS011;5689;48.798;9.070;2022-12-19T01:41:14;2.00;;;1.90;;
11263;SDS011;5689;48.798;9.070;2022-12-19T01:43:52;2.10;;;2.00;;
11263;SDS011;5689;48.798;9.070;2022-12-19T01:46:23;2.10;;;2.00;;
11263;SDS011;5689;48.798;9.070;2022-12-19T01:48:53;2.10;;;2.00;;
11263;SDS011;5689;48.798;9.070;2022-12-19T01:51:22;2.23;;;2.13;;
11263;SDS011;5689;48.798;9.070;2022-12-19T01:53:55;2.20;;;2.10;;
11263;SDS011;5689;48.798;9.070;2022-12-19T01:56:29;2.10;;;2.00;;
11263;SDS011;5689;48.798;9.070;2022-12-19T01:59:02;2.10;;;2.00;;
11263;SDS011;5689;48.798;9.070;2022-12-19T02:01:37;2.20;;;2.10;;
11263;SDS011;5689;48.798;9.070;2022-12-19T02:04:10;2.10;;;2.00;;
11263;SDS011;5689;48.798;9.070;2022-12-19T02:06:39;2.43;;;2.33;;
11263;SDS011;5689;48.798;9.070;2022-12-19T02:09:10;2.20;;;2.10;;
11263;SDS011;5689;48.798;9.070;2022-12-19T02:11:38;2.33;;;2.23;;
11263;SDS011;5689;48.798;9.070;2022-12-19T02:14:07;2.00;;;1.90;;
11263;SDS011;5689;48.798;9.070;2022-12-19T02:16:38;2.10;;;2.00;;
11263;SDS011;5689;48.798;9.070;2022-12-19T02:19:18;2.13;;;2.03;;
11263;SDS011;5689;48.798;9.070;2022-12-19T02:22:10;2.00;;;1.90;;
11263;SDS011;5689;48.798;9.070;2022-12-19T02:27:48;1.63;;;1.63;;
11263;SDS011;5689;48.798;9.070;2022-12-19T02:30:37;1.90;;;1.80;;
11263;SDS011;5689;48.798;9.070;2022-12-19T02:33:16;2.30;;;2.20;;
11263;SDS011;5689;48.798;9.070;2022-12-19T02:35:52;2.00;;;1.90;;
11263;SDS011;5689;48.798;9.070;2022-12-19T02:38:25;2.10;;;2.00;;
11263;SDS011;5689;48.798;9.070;2022-12-19T02:40:57;1.67;;;1.67;;
11263;SDS011;5689;48.798;9.070;2022-12-19T02:43:31;2.13;;;2.03;;
11263;SDS011;5689;48.798;9.070;2022-12-19T02:46:07;1.77;;;1.77;;
11263;SDS011;5689;48.798;9.070;2022-12-19T02:48:38;2.27;;;2.17;;
11263;SDS011;5689;48.798;9.070;2022-12-19T02:51:07;2.13;;;2.03;;
11263;SDS011;5689;48.798;9.070;2022-12-19T02:53:37;2.10;;;2.00;;
11263;SDS011;5689;48.798;9.070;2022-12-19T02:56:09;2.03;;;1.93;;
11263;SDS011;5689;48.798;9.070;2022-12-19T02:58:57;2.47;;;2.37;;
11263;SDS011;5689;48.798;9.070;2022-12-19T03:01:43;2.27;;;2.17;;
11263;SDS011;5689;48.798;9.070;2022-12-19T03:04:22;2.33;;;2.23;;
11263;SDS011;5689;48.798;9.070;2022-12-19T03:07:02;2.17;;;2.07;;
11263;SDS011;5689;48.798;9.070;2022-12-19T03:09:39;2.10;;;2.00;;
11263;SDS011;5689;48.798;9.070;2022-12-19T03:12:20;2.33;;;2.23;;
11263;SDS011;5689;48.798;9.070;2022-12-19T03:14:52;2.03;;;1.93;;
11263;SDS011;5689;48.798;9.070;2022-12-19T03:17:25;2.07;;;1.97;;
11263;SDS011;5689;48.798;9.070;2022-12-19T03:19:54;2.13;;;2.03;;
11263;SDS011;5689;48.798;9.070;2022-12-19T03:22:22;2.13;;;2.03;;
11263;SDS011;5689;48.798;9.070;2022-12-19T03:24:50;2.13;;;2.03;;
11263;SDS011;5689;48.798;9.070;2022-12-19T03:27:19;2.33;;;2.23;;
11263;SDS011;5689;48.798;9.070;2022-12-19T03:29:52;1.97;;;1.87;;
11263;SDS011;5689;48.798;9.070;2022-12-19T03:32:27;2.07;;;1.97;;
11263;SDS011;5689;48.798;9.070;2022-12-19T03:34:58;2.23;;;2.13;;
11263;SDS011;5689;48.798;9.070;2022-12-19T03:37:32;1.97;;;1.87;;
11263;SDS011;5689;48.798;9.070;2022-12-19T03:40:05;1.70;;;1.70;;
11263;SDS011;5689;48.798;9.070;2022-12-19T03:42:37;1.70;;;1.70;;
11263;SDS011;5689;48.798;9.070;2022-12-19T03:45:25;1.90;;;1.80;;
11263;SDS011;5689;48.798;9.070;2022-12-19T03:48:01;1.97;;;1.87;;
11263;SDS011;5689;48.798;9.070;2022-12-19T03:50:37;1.83;;;1.80;;
11263;SDS011;5689;48.798;9.070;2022-12-19T03:53:10;1.93;;;1.87;;
11263;SDS011;5689;48.798;9.070;2022-12-19T03:55:50;1.60;;;1.60;;
11263;SDS011;5689;48.798;9.070;2022-12-19T03:58:23;1.90;;;1.80;;
11263;SDS011;5689;48.798;9.070;2022-12-19T04:00:54;1.60;;;1.60;;
11263;SDS011;5689;48.798;9.070;2022-12-19T04:03:25;1.80;;;1.70;;
11263;SDS011;5689;48.798;9.070;2022-12-19T04:05:55;2.03;;;1.93;;
11263;SDS011;5689;48.798;9.070;2022-12-19T04:08:24;1.57;;;1.57;;
11263;SDS011;5689;48.798;9.070;2022-12-19T04:10:53;1.57;;;1.57;;
11263;SDS011;5689;48.798;9.070;2022-12-19T04:13:26;1.70;;;1.70;;
11263;SDS011;5689;48.798;9.070;2022-12-19T04:16:03;1.67;;;1.67;;
11263;SDS011;5689;48.798;9.070;2022-12-19T04:18:38;1.80;;;1.70;;
11263;SDS011;5689;48.798;9.070;2022-12-19T04:21:09;1.60;;;1.60;;
11263;SDS011;5689;48.798;9.070;2022-12-19T04:23:42;1.50;;;1.50;;
11263;SDS011;5689;48.798;9.070;2022-12-19T04:26:14;1.90;;;1.80;;
11263;SDS011;5689;48.798;9.070;2022-12-19T04:28:46;1.43;;;1.43;;
11263;SDS011;5689;48.798;9.070;2022-12-19T04:31:18;1.47;;;1.47;;
11263;SDS011;5689;48.798;9.070;2022-12-19T04:33:48;1.60;;;1.50;;
11263;SDS011;5689;48.798;9.070;2022-12-19T04:36:16;2.00;;;1.90;;
11263;SDS011;5689;48.798;9.070;2022-12-19T04:38:44;1.40;;;1.40;;
11263;SDS011;5689;48.798;9.070;2022-12-19T04:41:12;1.60;;;1.60;;
11263;SDS011;5689;48.798;9.070;2022-12-19T04:43:40;1.57;;;1.57;;
11263;SDS011;5689;48.798;9.070;2022-12-19T04:46:08;1.50;;;1.50;;
11263;SDS011;5689;48.798;9.070;2022-12-19T04:48:36;1.40;;;1.40;;
11263;SDS011;5689;48.798;9.070;2022-12-19T04:51:06;1.47;;;1.47;;
11263;SDS011;5689;48.798;9.070;2022-12-19T04:53:34;1.23;;;1.23;;
11263;SDS011;5689;48.798;9.070;2022-12-19T04:56:02;1.27;;;1.27;;
11263;SDS011;5689;48.798;9.070;2022-12-19T04:58:32;1.20;;;1.20;;
11263;SDS011;5689;48.798;9.070;2022-12-19T05:01:00;2.30;;;1.53;;
11263;SDS011;5689;48.798;9.070;2022-12-19T05:03:29;1.60;;;1.50;;
11263;SDS011;5689;48.798;9.070;2022-12-19T05:06:04;1.40;;;1.40;;
11263;SDS011;5689;48.798;9.070;2022-12-19T05:08:34;1.40;;;1.40;;
11263;SDS011;5689;48.798;9.070;2022-12-19T05:11:03;1.40;;;1.40;;
11263;SDS011;5689;48.798;9.070;2022-12-19T05:13:33;1.30;;;1.30;;
11263;SDS011;5689;48.798;9.070;2022-12-19T05:16:01;1.20;;;1.20;;
11263;SDS011;5689;48.798;9.070;2022-12-19T05:18:30;1.47;;;1.47;;
11263;SDS011;5689;48.798;9.070;2022-12-19T05:20:59;1.30;;;1.30;;
11263;SDS011;5689;48.798;9.070;2022-12-19T05:23:28;1.40;;;1.40;;
11263;SDS011;5689;48.798;9.070;2022-12-19T05:25:57;1.20;;;1.20;;
11263;SDS011;5689;48.798;9.070;2022-12-19T05:28:25;1.20;;;1.20;;
11263;SDS011;5689;48.798;9.070;2022-12-19T05:31:00;1.13;;;1.13;;
11263;SDS011;5689;48.798;9.070;2022-12-19T05:33:29;1.40;;;1.40;;
11263;SDS011;5689;48.798;9.070;2022-12-19T05:35:57;1.10;;;1.10;;
11263;SDS011;5689;48.798;9.070;2022-12-19T05:38:25;1.43;;;1.43;;
11263;SDS011;5689;48.798;9.070;2022-12-19T05:40:55;1.17;;;1.17;;
11263;SDS011;5689;48.798;9.070;2022-12-19T05:43:23;1.20;;;1.20;;
11263;SDS011;5689;48.798;9.070;2022-12-19T05:45:51;1.20;;;1.20;;
11263;SDS011;5689;48.798;9.070;2022-12-19T05:48:19;1.40;;;1.30;;
11263;SDS011;5689;48.798;9.070;2022-12-19T05:50:47;1.20;;;1.20;;
11263;SDS011;5689;48.798;9.070;2022-12-19T05:53:15;1.23;;;1.23;;
11263;SDS011;5689;48.798;9.070;2022-12-19T05:55:45;1.40;;;1.40;;
11263;SDS011;5689;48.798;9.070;2022-12-19T05:58:15;1.10;;;1.10;;
11263;SDS011;5689;48.798;9.070;2022-12-19T06:00:43;1.20;;;1.20;;
11263;SDS011;5689;48.798;9.070;2022-12-19T06:03:11;1.33;;;1.33;;
11263;SDS011;5689;48.798;9.070;2022-12-19T06:05:39;1.20;;;1.20;;
11263;SDS011;5689;48.798;9.070;2022-12-19T06:08:07;1.37;;;1.37;;
11263;SDS011;5689;48.798;9.070;2022-12-19T06:10:35;1.20;;;1.20;;
11263;SDS011;5689;48.798;9.070;2022-12-19T06:13:03;1.30;;;1.30;;
11263;SDS011;5689;48.798;9.070;2022-12-19T06:15:32;1.37;;;1.37;;
11263;SDS011;5689;48.798;9.070;2022-12-19T06:18:00;1.30;;;1.30;;
11263;SDS011;5689;48.798;9.070;2022-12-19T06:20:28;1.30;;;1.30;;
11263;SDS011;5689;48.798;9.070;2022-12-19T06:22:57;1.20;;;1.20;;
11263;SDS011;5689;48.798;9.070;2022-12-19T06:25:25;1.20;;;1.20;;
11263;SDS011;5689;48.798;9.070;2022-12-19T06:27:53;1.13;;;1.13;;
11263;SDS011;5689;48.798;9.070;2022-12-19T06:30:21;1.33;;;1.33;;
11263;SDS011;5689;48.798;9.070;2022-12-19T06:32:51;1.00;;;1.00;;
11263;SDS011;5689;48.798;9.070;2022-12-19T06:35:19;1.20;;;1.20;;
11263;SDS011;5689;48.798;9.070;2022-12-19T06:37:47;1.20;;;1.20;;
11263;SDS011;5689;48.798;9.070;2022-12-19T06:40:16;1.20;;;1.20;;
11263;SDS011;5689;48.798;9.070;2022-12-19T06:43:04;1.10;;;1.10;;
11263;SDS011;5689;48.798;9.070;2022-12-19T06:45:31;1.20;;;1.20;;
11263;SDS011;5689;48.798;9.070;2022-12-19T06:48:00;1.27;;;1.27;;
11263;SDS011;5689;48.798;9.070;2022-12-19T06:50:28;1.47;;;1.47;;
11263;SDS011;5689;48.798;9.070;2022-12-19T06:52:56;1.10;;;1.10;;
11263;SDS011;5689;48.798;9.070;2022-12-19T06:55:24;1.20;;;1.20;;
11263;SDS011;5689;48.798;9.070;2022-12-19T06:57:52;1.30;;;1.30;;
11263;SDS011;5689;48.798;9.070;2022-12-19T07:00:20;1.20;;;1.20;;
11263;SDS011;5689;48.798;9.070;2022-12-19T07:02:48;1.00;;;1.00;;
11263;SDS011;5689;48.798;9.070;2022-12-19T07:05:19;1.20;;;1.20;;
11263;SDS011;5689;48.798;9.070;2022-12-19T07:08:02;1.20;;;1.20;;
11263;SDS011;5689;48.798;9.070;2022-12-19T07:10:30;1.20;;;1.20;;
11263;SDS011;5689;48.798;9.070;2022-12-19T07:12:58;1.37;;;1.37;;
11263;SDS011;5689;48.798;9.070;2022-12-19T07:15:27;1.07;;;1.07;;
11263;SDS011;5689;48.798;9.070;2022-12-19T07:17:58;1.00;;;1.00;;
11263;SDS011;5689;48.798;9.070;2022-12-19T07:20:28;1.10;;;1.10;;
11263;SDS011;5689;48.798;9.070;2022-12-19T07:22:58;1.47;;;1.47;;
11263;SDS011;5689;48.798;9.070;2022-12-19T07:25:26;1.10;;;1.10;;
11263;SDS011;5689;48.798;9.070;2022-12-19T07:27:54;0.93;;;0.93;;
11263;SDS011;5689;48.798;9.070;2022-12-19T07:30:23;1.10;;;1.10;;
11263;SDS011;5689;48.798;9.070;2022-12-19T07:33:05;1.00;;;1.00;;
11263;SDS011;5689;48.798;9.070;2022-12-19T07:35:36;1.10;;;1.10;;
11263;SDS011;5689;48.798;9.070;2022-12-19T07:38:05;1.00;;;1.00;;
11263;SDS011;5689;48.798;9.070;2022-12-19T07:40:34;1.20;;;1.20;;
11263;SDS011;5689;48.798;9.070;2022-12-19T07:43:03;1.20;;;1.20;;
11263;SDS011;5689;48.798;9.070;2022-12-19T07:45:32;1.00;;;1.00;;
11263;SDS011;5689;48.798;9.070;2022-12-19T07:48:00;1.10;;;1.10;;
11263;SDS011;5689;48.798;9.070;2022-12-19T07:50:29;1.27;;;1.27;;
11263;SDS011;5689;48.798;9.070;2022-12-19T07:52:59;1.00;;;1.00;;
11263;SDS011;5689;48.798;9.070;2022-12-19T07:55:27;1.13;;;1.13;;
11263;SDS011;5689;48.798;9.070;2022-12-19T07:58:21;1.10;;;1.10;;
11263;SDS011;5689;48.798;9.070;2022-12-19T08:00:52;1.00;;;1.00;;
11263;SDS011;5689;48.798;9.070;2022-12-19T08:03:21;1.00;;;1.00;;
11263;SDS011;5689;48.798;9.070;2022-12-19T08:05:50;1.00;;;1.00;;
11263;SDS011;5689;48.798;9.070;2022-12-19T08:08:18;1.17;;;1.17;;
11263;SDS011;5689;48.798;9.070;2022-12-19T08:10:46;1.20;;;1.20;;
11263;SDS011;5689;48.798;9.070;2022-12-19T08:13:14;1.00;;;1.00;;
11263;SDS011;5689;48.798;9.070;2022-12-19T08:15:44;1.10;;;1.10;;
11263;SDS011;5689;48.798;9.070;2022-12-19T08:18:12;1.33;;;1.33;;
11263;SDS011;5689;48.798;9.070;2022-12-19T08:20:42;0.97;;;0.97;;
11263;SDS011;5689;48.798;9.070;2022-12-19T08:23:10;1.20;;;1.20;;
11263;SDS011;5689;48.798;9.070;2022-12-19T08:25:38;1.17;;;1.17;;
11263;SDS011;5689;48.798;9.070;2022-12-19T08:28:06;1.10;;;1.10;;
11263;SDS011;5689;48.798;9.070;2022-12-19T08:30:36;1.00;;;1.00;;
11263;SDS011;5689;48.798;9.070;2022-12-19T08:33:06;1.10;;;1.10;;
11263;SDS011;5689;48.798;9.070;2022-12-19T08:35:34;1.10;;;1.10;;
11263;SDS011;5689;48.798;9.070;2022-12-19T08:38:02;0.90;;;0.90;;
11263;SDS011;5689;48.798;9.070;2022-12-19T08:40:31;1.00;;;1.00;;
11263;SDS011;5689;48.798;9.070;2022-12-19T08:43:00;0.80;;;0.80;;
11263;SDS011;5689;48.798;9.070;2022-12-19T08:45:28;1.00;;;1.00;;
11263;SDS011;5689;48.798;9.070;2022-12-19T08:47:56;0.90;;;0.90;;
11263;SDS011;5689;48.798;9.070;2022-12-19T08:50:25;0.90;;;0.90;;
11263;SDS011;5689;48.798;9.070;2022-12-19T08:52:53;1.10;;;1.10;;
11263;SDS011;5689;48.798;9.070;2022-12-19T08:55:21;1.17;;;1.17;;
11263;SDS011;5689;48.798;9.070;2022-12-19T08:57:50;0.80;;;0.80;;
11263;SDS011;5689;48.798;9.070;2022-12-19T09:00:18;1.10;;;1.10;;
11263;SDS011;5689;48.798;9.070;2022-12-19T09:02:47;1.03;;;1.03;;
11263;SDS011;5689;48.798;9.070;2022-12-19T09:05:15;0.90;;;0.90;;
11263;SDS011;5689;48.798;9.070;2022-12-19T09:07:44;0.93;;;0.93;;
11263;SDS011;5689;48.798;9.070;2022-12-19T09:10:12;1.23;;;1.17;;
11263;SDS011;5689;48.798;9.070;2022-12-19T09:12:40;1.00;;;1.00;;
11263;SDS011;5689;48.798;9.070;2022-12-19T09:15:09;1.00;;;1.00;;
11263;SDS011;5689;48.798;9.070;2022-12-19T09:17:37;1.00;;;1.00;;
11263;SDS011;5689;48.798;9.070;2022-12-19T09:20:06;0.83;;;0.83;;
11263;SDS011;5689;48.798;9.070;2022-12-19T09:22:36;0.83;;;0.83;;
11263;SDS011;5689;48.798;9.070;2022-12-19T09:25:05;0.87;;;0.87;;
11263;SDS011;5689;48.798;9.070;2022-12-19T09:27:34;0.90;;;0.90;;
11263;SDS011;5689;48.798;9.070;2022-12-19T09:30:13;0.80;;;0.80;;
11263;SDS011;5689;48.798;9.070;2022-12-19T09:32:41;1.13;;;1.13;;
11263;SDS011;5689;48.798;9.070;2022-12-19T09:35:09;0.83;;;0.83;;
11263;SDS011;5689;48.798;9.070;2022-12-19T09:37:38;1.20;;;1.20;;
11263;SDS011;5689;48.798;9.070;2022-12-19T09:40:10;0.87;;;0.87;;
11263;SDS011;5689;48.798;9.070;2022-12-19T09:45:34;0.70;;;0.70;;
11263;SDS011;5689;48.798;9.070;2022-12-19T09:48:11;0.90;;;0.90;;
11263;SDS011;5689;48.798;9.070;2022-12-19T09:50:44;0.93;;;0.93;;
11263;SDS011;5689;48.798;9.070;2022-12-19T09:53:18;0.80;;;0.80;;
11263;SDS011;5689;48.798;9.070;2022-12-19T09:55:52;0.90;;;0.90;;
11263;SDS011;5689;48.798;9.070;2022-12-19T09:58:23;0.80;;;0.80;;
11263;SDS011;5689;48.798;9.070;2022-12-19T10:00:59;0.90;;;0.90;;
11263;SDS011;5689;48.798;9.070;2022-12-19T10:03:46;1.00;;;1.00;;
11263;SDS011;5689;48.798;9.070;2022-12-19T10:06:21;0.80;;;0.80;;
11263;SDS011;5689;48.798;9.070;2022-12-19T10:08:50;0.80;;;0.80;;
11263;SDS011;5689;48.798;9.070;2022-12-19T10:11:25;0.70;;;0.70;;
11263;SDS011;5689;48.798;9.070;2022-12-19T10:14:11;0.87;;;0.87;;
11263;SDS011;5689;48.798;9.070;2022-12-19T10:16:50;0.70;;;0.70;;
11263;SDS011;5689;48.798;9.070;2022-12-19T10:19:49;0.80;;;0.80;;
11263;SDS011;5689;48.798;9.070;2022-12-19T10:22:29;0.73;;;0.73;;
11263;SDS011;5689;48.798;9.070;2022-12-19T10:25:07;0.70;;;0.70;;
11263;SDS011;5689;48.798;9.070;2022-12-19T10:27:45;0.73;;;0.73;;
11263;SDS011;5689;48.798;9.070;2022-12-19T10:30:18;0.70;;;0.70;;
11263;SDS011;5689;48.798;9.070;2022-12-19T10:32:53;0.60;;;0.60;;
11263;SDS011;5689;48.798;9.070;2022-12-19T10:35:31;0.60;;;0.60;;
11263;SDS011;5689;48.798;9.070;2022-12-19T10:38:06;0.57;;;0.57;;
11263;SDS011;5689;48.798;9.070;2022-12-19T10:40:44;0.70;;;0.70;;
11263;SDS011;5689;48.798;9.070;2022-12-19T10:43:20;0.70;;;0.70;;
11263;SDS011;5689;48.798;9.070;2022-12-19T10:45:58;0.50;;;0.50;;
11263;SDS011;5689;48.798;9.070;2022-12-19T10:48:31;0.50;;;0.50;;
11263;SDS011;5689;48.798;9.070;2022-12-19T10:50:59;0.40;;;0.40;;
11263;SDS011;5689;48.798;9.070;2022-12-19T10:53:28;0.40;;;0.40;;
11263;SDS011;5689;48.798;9.070;2022-12-19T10:55:59;0.40;;;0.40;;
11263;SDS011;5689;48.798;9.070;2022-12-19T10:58:31;0.35;;;0.35;;
11263;SDS011;5689;48.798;9.070;2022-12-19T11:01:04;0.30;;;0.30;;
11263;SDS011;5689;48.798;9.070;2022-12-19T11:03:38;0.40;;;0.40;;
11263;SDS011;5689;48.798;9.070;2022-12-19T11:09:15;0.40;;;0.40;;
11263;SDS011;5689;48.798;9.070;2022-12-19T11:11:57;0.30;;;0.30;;
11263;SDS011;5689;48.798;9.070;2022-12-19T11:14:29;0.30;;;0.30;;
11263;SDS011;5689;48.798;9.070;2022-12-19T11:16:57;0.30;;;0.30;;
11263;SDS011;5689;48.798;9.070;2022-12-19T11:19:27;0.35;;;0.35;;
11263;SDS011;5689;48.798;9.070;2022-12-19T11:21:58;0.45;;;0.45;;
11263;SDS011;5689;48.798;9.070;2022-12-19T11:24:33;0.20;;;0.20;;
11263;SDS011;5689;48.798;9.070;2022-12-19T11:27:08;0.30;;;0.30;;
11263;SDS011;5689;48.798;9.070;2022-12-19T11:30:05;0.30;;;0.30;;
11263;SDS011;5689;48.798;9.070;2022-12-19T11:33:11;0.30;;;0.30;;
11263;SDS011;5689;48.798;9.070;2022-12-19T11:35:45;0.30;;;0.30;;
11263;SDS011;5689;48.798;9.070;2022-12-19T11:38:16;0.40;;;0.40;;
11263;SDS011;5689;48.798;9.070;2022-12-19T11:40:49;0.30;;;0.30;;
11263;SDS011;5689;48.798;9.070;2022-12-19T11:43:24;0.40;;;0.40;;
11263;SDS011;5689;48.798;9.070;2022-12-19T11:46:16;0.30;;;0.30;;
11263;SDS011;5689;48.798;9.070;2022-12-19T11:49:00;0.20;;;0.20;;
11263;SDS011;5689;48.798;9.070;2022-12-19T11:51:33;0.20;;;0.20;;
11263;SDS011;5689;48.798;9.070;2022-12-19T11:54:08;0.20;;;0.20;;
11263;SDS011;5689;48.798;9.070;2022-12-19T11:56:41;0.20;;;0.20;;
11263;SDS011;5689;48.798;9.070;2022-12-19T11:59:15;0.22;;;0.22;;
11263;SDS011;5689;48.798;9.070;2022-12-19T12:01:49;0.20;;;0.20;;
11263;SDS011;5689;48.798;9.070;2022-12-19T12:04:33;0.20;;;0.20;;
11263;SDS011;5689;48.798;9.070;2022-12-19T12:07:21;0.20;;;0.20;;
11263;SDS011;5689;48.798;9.070;2022-12-19T12:09:50;0.25;;;0.25;;
11263;SDS011;5689;48.798;9.070;2022-12-19T12:12:24;0.20;;;0.20;;
11263;SDS011;5689;48.798;9.070;2022-12-19T12:15:08;0.20;;;0.20;;
11263;SDS011;5689;48.798;9.070;2022-12-19T12:17:49;0.30;;;0.30;;
11263;SDS011;5689;48.798;9.070;2022-12-19T12:20:27;0.30;;;0.30;;
11263;SDS011;5689;48.798;9.070;2022-12-19T12:23:05;0.40;;;0.40;;
11263;SDS011;5689;48.798;9.070;2022-12-19T12:25:46;0.35;;;0.35;;
11263;SDS011;5689;48.798;9.070;2022-12-19T12:28:24;0.40;;;0.40;;
11263;SDS011;5689;48.798;9.070;2022-12-19T12:31:36;0.47;;;0.47;;
11263;SDS011;5689;48.798;9.070;2022-12-19T12:34:44;0.43;;;0.43;;
11263;SDS011;5689;48.798;9.070;2022-12-19T12:37:28;0.40;;;0.40;;
11263;SDS011;5689;48.798;9.070;2022-12-19T12:40:29;0.40;;;0.40;;
11263;SDS011;5689;48.798;9.070;2022-12-19T12:43:08;0.43;;;0.43;;
11263;SDS011;5689;48.798;9.070;2022-12-19T12:45:46;0.45;;;0.45;;
11263;SDS011;5689;48.798;9.070;2022-12-19T12:48:18;0.43;;;0.43;;
11263;SDS011;5689;48.798;9.070;2022-12-19T12:50:51;0.40;;;0.40;;
11263;SDS011;5689;48.798;9.070;2022-12-19T12:53:22;0.40;;;0.40;;
11263;SDS011;5689;48.798;9.070;2022-12-19T12:55:53;0.40;;;0.40;;
11263;SDS011;5689;48.798;9.070;2022-12-19T13:01:31;0.40;;;0.40;;
11263;SDS011;5689;48.798;9.070;2022-12-19T13:04:04;0.40;;;0.40;;
11263;SDS011;5689;48.798;9.070;2022-12-19T13:09:29;0.52;;;0.52;;
11263;SDS011;5689;48.798;9.070;2022-12-19T13:12:02;0.40;;;0.40;;
11263;SDS011;5689;48.798;9.070;2022-12-19T13:18:01;0.40;;;0.40;;
11263;SDS011;5689;48.798;9.070;2022-12-19T13:20:50;0.55;;;0.55;;
11263;SDS011;5689;48.798;9.070;2022-12-19T13:23:19;0.30;;;0.30;;
11263;SDS011;5689;48.798;9.070;2022-12-19T13:25:50;0.43;;;0.43;;
11263;SDS011;5689;48.798;9.070;2022-12-19T13:28:37;0.40;;;0.40;;
11263;SDS011;5689;48.798;9.070;2022-12-19T13:31:13;0.30;;;0.30;;
11263;SDS011;5689;48.798;9.070;2022-12-19T13:33:43;0.30;;;0.30;;
11263;SDS011;5689;48.798;9.070;2022-12-19T13:39:26;0.40;;;0.40;;
11263;SDS011;5689;48.798;9.070;2022-12-19T13:42:00;0.30;;;0.30;;
11263;SDS011;5689;48.798;9.070;2022-12-19T13:44:54;0.50;;;0.50;;
11263;SDS011;5689;48.798;9.070;2022-12-19T13:47:25;0.40;;;0.40;;
11263;SDS011;5689;48.798;9.070;2022-12-19T13:49:58;0.30;;;0.30;;
11263;SDS011;5689;48.798;9.070;2022-12-19T13:52:30;0.40;;;0.40;;
11263;SDS011;5689;48.798;9.070;2022-12-19T13:54:59;0.30;;;0.30;;
11263;SDS011;5689;48.798;9.070;2022-12-19T13:57:28;0.30;;;0.30;;
11263;SDS011;5689;48.798;9.070;2022-12-19T13:59:58;0.40;;;0.40;;
11263;SDS011;5689;48.798;9.070;2022-12-19T14:02:36;0.40;;;0.40;;
11263;SDS011;5689;48.798;9.070;2022-12-19T14:05:13;0.40;;;0.40;;
11263;SDS011;5689;48.798;9.070;2022-12-19T14:07:48;0.40;;;0.40;;
11263;SDS011;5689;48.798;9.070;2022-12-19T14:10:20;0.47;;;0.47;;
11263;SDS011;5689;48.798;9.070;2022-12-19T14:12:54;0.50;;;0.50;;
11263;SDS011;5689;48.798;9.070;2022-12-19T14:15:43;0.40;;;0.40;;
11263;SDS011;5689;48.798;9.070;2022-12-19T14:18:17;0.40;;;0.40;;
11263;SDS011;5689;48.798;9.070;2022-12-19T14:20:46;0.23;;;0.23;;
11263;SDS011;5689;48.798;9.070;2022-12-19T14:23:15;0.35;;;0.35;;
11263;SDS011;5689;48.798;9.070;2022-12-19T14:25:46;0.40;;;0.40;;
11263;SDS011;5689;48.798;9.070;2022-12-19T14:28:16;0.30;;;0.30;;
11263;SDS011;5689;48.798;9.070;2022-12-19T14:30:55;0.50;;;0.50;;
11263;SDS011;5689;48.798;9.070;2022-12-19T14:33:28;0.50;;;0.50;;
11263;SDS011;5689;48.798;9.070;2022-12-19T14:35:59;0.40;;;0.40;;
11263;SDS011;5689;48.798;9.070;2022-12-19T14:38:29;0.50;;;0.50;;
11263;SDS011;5689;48.798;9.070;2022-12-19T14:41:01;0.50;;;0.50;;
11263;SDS011;5689;48.798;9.070;2022-12-19T14:43:30;0.40;;;0.40;;
11263;SDS011;5689;48.798;9.070;2022-12-19T14:46:09;0.40;;;0.40;;
11263;SDS011;5689;48.798;9.070;2022-12-19T14:48:47;0.57;;;0.57;;
11263;SDS011;5689;48.798;9.070;2022-12-19T14:51:19;0.50;;;0.50;;
11263;SDS011;5689;48.798;9.070;2022-12-19T14:54:02;0.57;;;0.57;;
11263;SDS011;5689;48.798;9.070;2022-12-19T14:57:15;0.57;;;0.57;;
11263;SDS011;5689;48.798;9.070;2022-12-19T14:59:49;0.43;;;0.43;;
11263;SDS011;5689;48.798;9.070;2022-12-19T15:02:20;0.50;;;0.50;;
11263;SDS011;5689;48.798;9.070;2022-12-19T15:04:58;0.60;;;0.60;;
11263;SDS011;5689;48.798;9.070;2022-12-19T15:07:28;0.60;;;0.60;;
11263;SDS011;5689;48.798;9.070;2022-12-19T15:10:00;0.50;;;0.50;;
11263;SDS011;5689;48.798;9.070;2022-12-19T15:12:32;0.60;;;0.60;;
11263;SDS011;5689;48.798;9.070;2022-12-19T15:15:35;0.50;;;0.50;;
11263;SDS011;5689;48.798;9.070;2022-12-19T15:18:15;0.60;;;0.60;;
11263;SDS011;5689;48.798;9.070;2022-12-19T15:20:49;0.50;;;0.50;;
11263;SDS011;5689;48.798;9.070;2022-12-19T15:23:19;0.63;;;0.63;;
11263;SDS011;5689;48.798;9.070;2022-12-19T15:25:47;0.60;;;0.60;;
11263;SDS011;5689;48.798;9.070;2022-12-19T15:28:38;0.50;;;0.50;;
11263;SDS011;5689;48.798;9.070;2022-12-19T15:31:10;0.50;;;0.50;;
11263;SDS011;5689;48.798;9.070;2022-12-19T15:33:46;0.57;;;0.57;;
11263;SDS011;5689;48.798;9.070;2022-12-19T15:36:32;0.60;;;0.60;;
11263;SDS011;5689;48.798;9.070;2022-12-19T15:39:00;0.70;;;0.70;;
11263;SDS011;5689;48.798;9.070;2022-12-19T15:41:28;0.50;;;0.50;;
11263;SDS011;5689;48.798;9.070;2022-12-19T15:43:58;0.60;;;0.60;;
11263;SDS011;5689;48.798;9.070;2022-12-19T15:46:33;0.50;;;0.50;;
11263;SDS011;5689;48.798;9.070;2022-12-19T15:49:03;0.50;;;0.50;;
11263;SDS011;5689;48.798;9.070;2022-12-19T15:51:31;0.50;;;0.50;;
11263;SDS011;5689;48.798;9.070;2022-12-19T15:53:58;0.60;;;0.60;;
11263;SDS011;5689;48.798;9.070;2022-12-19T15:56:41;0.60;;;0.60;;